sensor_id;sensor_type;location;lat;lon;timestamp;P1;durP1;ratioP1;P2;durP2;ratioP2
14472;SDS011;7322;50.872;4.386;2023-04-03T00:03:06;4.67;;;3.80;;
14472;SDS011;7322;50.872;4.386;2023-04-03T00:05:38;4.40;;;3.53;;
14472;SDS011;7322;50.872;4.386;2023-04-03T00:08:08;5.73;;;3.97;;
14472;SDS011;7322;50.872;4.386;2023-04-03T00:10:36;4.83;;;4.20;;
14472;SDS011;7322;50.872;4.386;2023-04-03T00:19:00;4.47;;;3.50;;
14472;SDS011;7322;50.872;4.386;2023-04-03T00:24:07;3.87;;;3.30;;
14472;SDS011;7322;50.872;4.386;2023-04-03T00:26:40;5.67;;;3.97;;
14472;SDS011;7322;50.872;4.386;2023-04-03T00:34:53;4.80;;;3.97;;
14472;SDS011;7322;50.872;4.386;2023-04-03T00:37:24;3.60;;;3.17;;
14472;SDS011;7322;50.872;4.386;2023-04-03T00:39:52;4.33;;;3.30;;
14472;SDS011;7322;50.872;4.386;2023-04-03T00:42:36;4.23;;;3.43;;
14472;SDS011;7322;50.872;4.386;2023-04-03T00:50:48;3.73;;;3.30;;
14472;SDS011;7322;50.872;4.386;2023-04-03T00:53:29;5.27;;;3.60;;
14472;SDS011;7322;50.872;4.386;2023-04-03T00:56:13;3.87;;;3.03;;
14472;SDS011;7322;50.872;4.386;2023-04-03T00:58:46;4.40;;;3.37;;
14472;SDS011;7322;50.872;4.386;2023-04-03T01:01:26;3.33;;;3.03;;
14472;SDS011;7322;50.872;4.386;2023-04-03T01:03:55;3.60;;;3.20;;
14472;SDS011;7322;50.872;4.386;2023-04-03T01:15:07;4.27;;;3.23;;
14472;SDS011;7322;50.872;4.386;2023-04-03T01:27:06;3.90;;;3.07;;
14472;SDS011;7322;50.872;4.386;2023-04-03T01:29:38;3.40;;;3.10;;
14472;SDS011;7322;50.872;4.386;2023-04-03T01:32:15;4.30;;;3.10;;
14472;SDS011;7322;50.872;4.386;2023-04-03T01:34:44;3.40;;;2.90;;
14472;SDS011;7322;50.872;4.386;2023-04-03T01:37:13;3.53;;;3.10;;
14472;SDS011;7322;50.872;4.386;2023-04-03T01:39:43;3.93;;;3.30;;
14472;SDS011;7322;50.872;4.386;2023-04-03T01:42:11;5.30;;;3.23;;
14472;SDS011;7322;50.872;4.386;2023-04-03T01:44:38;3.30;;;3.00;;
14472;SDS011;7322;50.872;4.386;2023-04-03T01:47:18;5.00;;;3.27;;
14472;SDS011;7322;50.872;4.386;2023-04-03T01:49:59;4.10;;;3.07;;
14472;SDS011;7322;50.872;4.386;2023-04-03T01:52:45;3.90;;;2.60;;
14472;SDS011;7322;50.872;4.386;2023-04-03T01:58:22;4.57;;;3.33;;
14472;SDS011;7322;50.872;4.386;2023-04-03T02:00:49;3.20;;;2.90;;
14472;SDS011;7322;50.872;4.386;2023-04-03T02:03:33;3.67;;;2.93;;
14472;SDS011;7322;50.872;4.386;2023-04-03T02:12:06;3.63;;;2.90;;
14472;SDS011;7322;50.872;4.386;2023-04-03T02:14:41;3.47;;;2.80;;
14472;SDS011;7322;50.872;4.386;2023-04-03T02:23:10;3.20;;;2.90;;
14472;SDS011;7322;50.872;4.386;2023-04-03T02:31:15;4.10;;;3.00;;
14472;SDS011;7322;50.872;4.386;2023-04-03T02:33:43;3.10;;;2.80;;
14472;SDS011;7322;50.872;4.386;2023-04-03T02:36:27;3.40;;;2.53;;
14472;SDS011;7322;50.872;4.386;2023-04-03T02:39:05;2.80;;;2.60;;
14472;SDS011;7322;50.872;4.386;2023-04-03T02:41:33;3.40;;;2.90;;
14472;SDS011;7322;50.872;4.386;2023-04-03T02:44:02;2.77;;;2.50;;
14472;SDS011;7322;50.872;4.386;2023-04-03T02:46:32;3.67;;;2.70;;
14472;SDS011;7322;50.872;4.386;2023-04-03T02:49:01;3.23;;;2.53;;
14472;SDS011;7322;50.872;4.386;2023-04-03T03:05:24;3.90;;;2.70;;
14472;SDS011;7322;50.872;4.386;2023-04-03T03:07:52;2.83;;;2.50;;
14472;SDS011;7322;50.872;4.386;2023-04-03T03:10:23;2.60;;;2.40;;
14472;SDS011;7322;50.872;4.386;2023-04-03T03:12:52;2.73;;;2.43;;
14472;SDS011;7322;50.872;4.386;2023-04-03T03:15:21;3.80;;;2.80;;
14472;SDS011;7322;50.872;4.386;2023-04-03T03:17:50;2.90;;;2.53;;
14472;SDS011;7322;50.872;4.386;2023-04-03T03:20:21;3.00;;;2.47;;
14472;SDS011;7322;50.872;4.386;2023-04-03T03:28:47;3.03;;;2.40;;
14472;SDS011;7322;50.872;4.386;2023-04-03T03:31:27;2.53;;;2.33;;
14472;SDS011;7322;50.872;4.386;2023-04-03T03:33:57;3.60;;;2.50;;
14472;SDS011;7322;50.872;4.386;2023-04-03T03:36:28;2.33;;;2.10;;
14472;SDS011;7322;50.872;4.386;2023-04-03T03:38:56;3.47;;;2.30;;
14472;SDS011;7322;50.872;4.386;2023-04-03T03:41:32;3.43;;;2.70;;
14472;SDS011;7322;50.872;4.386;2023-04-03T03:44:00;2.20;;;2.00;;
14472;SDS011;7322;50.872;4.386;2023-04-03T03:49:20;2.53;;;2.33;;
14472;SDS011;7322;50.872;4.386;2023-04-03T03:51:48;2.70;;;2.40;;
14472;SDS011;7322;50.872;4.386;2023-04-03T03:57:54;2.57;;;2.30;;
14472;SDS011;7322;50.872;4.386;2023-04-03T04:03:21;2.80;;;2.20;;
14472;SDS011;7322;50.872;4.386;2023-04-03T04:05:56;2.53;;;2.30;;
14472;SDS011;7322;50.872;4.386;2023-04-03T04:08:24;2.47;;;2.27;;
14472;SDS011;7322;50.872;4.386;2023-04-03T04:10:52;3.47;;;2.50;;
14472;SDS011;7322;50.872;4.386;2023-04-03T04:13:25;3.63;;;2.33;;
14472;SDS011;7322;50.872;4.386;2023-04-03T04:15:59;2.70;;;2.20;;
14472;SDS011;7322;50.872;4.386;2023-04-03T04:18:42;3.17;;;2.20;;
14472;SDS011;7322;50.872;4.386;2023-04-03T04:21:21;2.40;;;2.20;;
14472;SDS011;7322;50.872;4.386;2023-04-03T04:27:08;2.20;;;2.00;;
14472;SDS011;7322;50.872;4.386;2023-04-03T04:29:40;2.30;;;2.00;;
14472;SDS011;7322;50.872;4.386;2023-04-03T04:35:14;2.83;;;2.17;;
14472;SDS011;7322;50.872;4.386;2023-04-03T04:37:42;2.57;;;2.03;;
14472;SDS011;7322;50.872;4.386;2023-04-03T04:45:48;2.27;;;2.07;;
14472;SDS011;7322;50.872;4.386;2023-04-03T04:48:22;2.23;;;2.03;;
14472;SDS011;7322;50.872;4.386;2023-04-03T04:51:04;2.50;;;2.00;;
14472;SDS011;7322;50.872;4.386;2023-04-03T04:53:37;2.13;;;1.93;;
14472;SDS011;7322;50.872;4.386;2023-04-03T04:56:14;3.10;;;2.10;;
14472;SDS011;7322;50.872;4.386;2023-04-03T04:58:53;2.47;;;2.10;;
14472;SDS011;7322;50.872;4.386;2023-04-03T05:01:22;2.90;;;1.93;;
14472;SDS011;7322;50.872;4.386;2023-04-03T05:03:49;2.20;;;2.00;;
14472;SDS011;7322;50.872;4.386;2023-04-03T05:12:20;2.80;;;2.10;;
14472;SDS011;7322;50.872;4.386;2023-04-03T05:17:46;3.27;;;2.20;;
14472;SDS011;7322;50.872;4.386;2023-04-03T05:20:14;2.40;;;1.70;;
14472;SDS011;7322;50.872;4.386;2023-04-03T05:25:56;3.17;;;2.10;;
14472;SDS011;7322;50.872;4.386;2023-04-03T05:28:25;2.70;;;1.80;;
14472;SDS011;7322;50.872;4.386;2023-04-03T05:30:55;2.67;;;1.70;;
14472;SDS011;7322;50.872;4.386;2023-04-03T05:33:35;3.40;;;1.83;;
14472;SDS011;7322;50.872;4.386;2023-04-03T05:39:10;2.80;;;1.80;;
14472;SDS011;7322;50.872;4.386;2023-04-03T05:41:43;2.17;;;1.57;;
14472;SDS011;7322;50.872;4.386;2023-04-03T05:49:47;2.43;;;1.93;;
14472;SDS011;7322;50.872;4.386;2023-04-03T05:52:31;2.10;;;1.63;;
14472;SDS011;7322;50.872;4.386;2023-04-03T05:55:08;2.80;;;1.70;;
14472;SDS011;7322;50.872;4.386;2023-04-03T05:57:43;2.33;;;1.63;;
14472;SDS011;7322;50.872;4.386;2023-04-03T06:00:12;2.77;;;1.70;;
14472;SDS011;7322;50.872;4.386;2023-04-03T06:02:46;2.27;;;1.80;;
14472;SDS011;7322;50.872;4.386;2023-04-03T06:08:09;2.37;;;1.80;;
14472;SDS011;7322;50.872;4.386;2023-04-03T06:13:21;1.60;;;1.50;;
14472;SDS011;7322;50.872;4.386;2023-04-03T06:24:24;2.00;;;1.70;;
14472;SDS011;7322;50.872;4.386;2023-04-03T06:33:00;2.23;;;1.60;;
14472;SDS011;7322;50.872;4.386;2023-04-03T06:35:27;2.30;;;1.57;;
14472;SDS011;7322;50.872;4.386;2023-04-03T06:37:57;2.53;;;1.83;;
14472;SDS011;7322;50.872;4.386;2023-04-03T06:42:59;2.70;;;1.70;;
14472;SDS011;7322;50.872;4.386;2023-04-03T06:45:37;3.20;;;1.30;;
14472;SDS011;7322;50.872;4.386;2023-04-03T06:48:10;2.37;;;1.40;;
14472;SDS011;7322;50.872;4.386;2023-04-03T06:53:11;2.53;;;1.73;;
14472;SDS011;7322;50.872;4.386;2023-04-03T06:55:39;2.57;;;1.80;;
14472;SDS011;7322;50.872;4.386;2023-04-03T06:58:19;2.17;;;1.40;;
14472;SDS011;7322;50.872;4.386;2023-04-03T07:00:48;3.90;;;1.67;;
14472;SDS011;7322;50.872;4.386;2023-04-03T07:03:16;3.30;;;1.63;;
14472;SDS011;7322;50.872;4.386;2023-04-03T07:05:43;7.23;;;5.40;;
14472;SDS011;7322;50.872;4.386;2023-04-03T07:08:15;8.17;;;4.70;;
14472;SDS011;7322;50.872;4.386;2023-04-03T07:10:42;7.53;;;3.50;;
14472;SDS011;7322;50.872;4.386;2023-04-03T07:13:09;8.77;;;3.60;;
14472;SDS011;7322;50.872;4.386;2023-04-03T07:15:37;4.97;;;3.17;;
14472;SDS011;7322;50.872;4.386;2023-04-03T07:18:12;6.50;;;3.10;;
14472;SDS011;7322;50.872;4.386;2023-04-03T07:27:25;5.73;;;3.20;;
14472;SDS011;7322;50.872;4.386;2023-04-03T07:39:02;6.33;;;2.83;;
14472;SDS011;7322;50.872;4.386;2023-04-03T07:44:24;4.50;;;2.90;;
14472;SDS011;7322;50.872;4.386;2023-04-03T07:49:37;7.17;;;2.87;;
14472;SDS011;7322;50.872;4.386;2023-04-03T07:52:05;5.63;;;3.03;;
14472;SDS011;7322;50.872;4.386;2023-04-03T07:54:34;7.00;;;2.93;;
14472;SDS011;7322;50.872;4.386;2023-04-03T07:57:08;6.43;;;3.07;;
14472;SDS011;7322;50.872;4.386;2023-04-03T08:02:14;4.73;;;2.90;;
14472;SDS011;7322;50.872;4.386;2023-04-03T08:04:41;4.50;;;2.70;;
14472;SDS011;7322;50.872;4.386;2023-04-03T08:07:14;6.30;;;2.93;;
14472;SDS011;7322;50.872;4.386;2023-04-03T08:09:42;3.30;;;2.30;;
14472;SDS011;7322;50.872;4.386;2023-04-03T08:12:21;4.53;;;2.50;;
14472;SDS011;7322;50.872;4.386;2023-04-03T08:17:50;2.50;;;2.10;;
14472;SDS011;7322;50.872;4.386;2023-04-03T08:23:31;4.30;;;2.27;;
14472;SDS011;7322;50.872;4.386;2023-04-03T08:26:05;3.70;;;2.37;;
14472;SDS011;7322;50.872;4.386;2023-04-03T08:28:33;5.83;;;2.37;;
14472;SDS011;7322;50.872;4.386;2023-04-03T08:31:06;4.13;;;2.27;;
14472;SDS011;7322;50.872;4.386;2023-04-03T08:33:41;5.23;;;2.40;;
14472;SDS011;7322;50.872;4.386;2023-04-03T08:36:15;4.97;;;2.40;;
14472;SDS011;7322;50.872;4.386;2023-04-03T08:38:45;3.17;;;2.37;;
14472;SDS011;7322;50.872;4.386;2023-04-03T08:41:14;4.87;;;2.50;;
14472;SDS011;7322;50.872;4.386;2023-04-03T08:43:56;5.53;;;2.30;;
14472;SDS011;7322;50.872;4.386;2023-04-03T08:46:50;3.37;;;2.07;;
14472;SDS011;7322;50.872;4.386;2023-04-03T08:49:46;4.30;;;2.00;;
14472;SDS011;7322;50.872;4.386;2023-04-03T08:52:24;2.83;;;1.80;;
14472;SDS011;7322;50.872;4.386;2023-04-03T08:55:02;3.83;;;2.00;;
14472;SDS011;7322;50.872;4.386;2023-04-03T08:57:33;3.67;;;2.27;;
14472;SDS011;7322;50.872;4.386;2023-04-03T09:00:06;3.00;;;2.00;;
14472;SDS011;7322;50.872;4.386;2023-04-03T09:02:43;3.03;;;2.20;;
14472;SDS011;7322;50.872;4.386;2023-04-03T09:05:12;3.13;;;1.80;;
14472;SDS011;7322;50.872;4.386;2023-04-03T09:07:42;3.47;;;1.90;;
14472;SDS011;7322;50.872;4.386;2023-04-03T09:10:12;3.17;;;2.10;;
14472;SDS011;7322;50.872;4.386;2023-04-03T09:12:41;2.93;;;2.20;;
14472;SDS011;7322;50.872;4.386;2023-04-03T09:15:15;2.80;;;2.10;;
14472;SDS011;7322;50.872;4.386;2023-04-03T09:17:59;3.97;;;2.33;;
14472;SDS011;7322;50.872;4.386;2023-04-03T09:20:32;4.37;;;2.07;;
14472;SDS011;7322;50.872;4.386;2023-04-03T09:23:14;2.97;;;2.07;;
14472;SDS011;7322;50.872;4.386;2023-04-03T09:25:50;4.70;;;2.20;;
14472;SDS011;7322;50.872;4.386;2023-04-03T09:28:20;3.47;;;2.03;;
14472;SDS011;7322;50.872;4.386;2023-04-03T09:30:48;4.83;;;2.20;;
14472;SDS011;7322;50.872;4.386;2023-04-03T09:33:16;2.70;;;1.83;;
14472;SDS011;7322;50.872;4.386;2023-04-03T09:35:44;3.07;;;1.77;;
14472;SDS011;7322;50.872;4.386;2023-04-03T09:38:17;3.97;;;1.80;;
14472;SDS011;7322;50.872;4.386;2023-04-03T09:40:47;3.30;;;1.90;;
14472;SDS011;7322;50.872;4.386;2023-04-03T09:43:20;3.17;;;1.80;;
14472;SDS011;7322;50.872;4.386;2023-04-03T09:48:57;2.73;;;1.93;;
14472;SDS011;7322;50.872;4.386;2023-04-03T09:51:27;3.47;;;1.73;;
14472;SDS011;7322;50.872;4.386;2023-04-03T09:54:04;2.30;;;1.40;;
14472;SDS011;7322;50.872;4.386;2023-04-03T09:59:31;4.20;;;1.90;;
14472;SDS011;7322;50.872;4.386;2023-04-03T10:02:04;2.60;;;1.63;;
14472;SDS011;7322;50.872;4.386;2023-04-03T10:04:50;4.93;;;1.70;;
14472;SDS011;7322;50.872;4.386;2023-04-03T10:07:27;3.57;;;1.80;;
14472;SDS011;7322;50.872;4.386;2023-04-03T10:09:57;2.37;;;1.50;;
14472;SDS011;7322;50.872;4.386;2023-04-03T10:12:25;3.50;;;1.90;;
14472;SDS011;7322;50.872;4.386;2023-04-03T10:14:56;2.40;;;1.57;;
14472;SDS011;7322;50.872;4.386;2023-04-03T10:17:30;2.50;;;1.83;;
14472;SDS011;7322;50.872;4.386;2023-04-03T10:20:05;4.13;;;1.93;;
14472;SDS011;7322;50.872;4.386;2023-04-03T10:22:43;1.97;;;1.53;;
14472;SDS011;7322;50.872;4.386;2023-04-03T10:25:25;1.97;;;1.50;;
14472;SDS011;7322;50.872;4.386;2023-04-03T10:27:59;2.63;;;1.80;;
14472;SDS011;7322;50.872;4.386;2023-04-03T10:30:36;2.43;;;1.60;;
14472;SDS011;7322;50.872;4.386;2023-04-03T10:33:18;3.90;;;1.60;;
14472;SDS011;7322;50.872;4.386;2023-04-03T10:35:57;2.93;;;1.77;;
14472;SDS011;7322;50.872;4.386;2023-04-03T10:38:39;2.90;;;1.67;;
14472;SDS011;7322;50.872;4.386;2023-04-03T10:41:13;2.63;;;1.67;;
14472;SDS011;7322;50.872;4.386;2023-04-03T10:43:50;3.50;;;1.53;;
14472;SDS011;7322;50.872;4.386;2023-04-03T10:46:27;1.77;;;1.43;;
14472;SDS011;7322;50.872;4.386;2023-04-03T10:49:02;3.13;;;1.60;;
14472;SDS011;7322;50.872;4.386;2023-04-03T10:51:41;1.90;;;1.40;;
14472;SDS011;7322;50.872;4.386;2023-04-03T10:54:13;2.90;;;1.83;;
14472;SDS011;7322;50.872;4.386;2023-04-03T10:56:47;2.37;;;1.50;;
14472;SDS011;7322;50.872;4.386;2023-04-03T10:59:23;2.07;;;1.30;;
14472;SDS011;7322;50.872;4.386;2023-04-03T11:01:56;1.87;;;1.40;;
14472;SDS011;7322;50.872;4.386;2023-04-03T11:04:26;2.03;;;1.33;;
14472;SDS011;7322;50.872;4.386;2023-04-03T11:07:00;3.10;;;1.60;;
14472;SDS011;7322;50.872;4.386;2023-04-03T11:09:30;2.27;;;1.50;;
14472;SDS011;7322;50.872;4.386;2023-04-03T11:12:05;2.80;;;1.57;;
14472;SDS011;7322;50.872;4.386;2023-04-03T11:14:36;1.87;;;1.40;;
14472;SDS011;7322;50.872;4.386;2023-04-03T11:17:06;2.00;;;1.47;;
14472;SDS011;7322;50.872;4.386;2023-04-03T11:19:49;1.43;;;1.30;;
14472;SDS011;7322;50.872;4.386;2023-04-03T11:22:25;2.93;;;1.50;;
14472;SDS011;7322;50.872;4.386;2023-04-03T11:24:57;1.73;;;1.30;;
14472;SDS011;7322;50.872;4.386;2023-04-03T11:27:33;1.93;;;1.50;;
14472;SDS011;7322;50.872;4.386;2023-04-03T11:30:06;2.17;;;1.27;;
14472;SDS011;7322;50.872;4.386;2023-04-03T11:35:42;2.00;;;1.20;;
14472;SDS011;7322;50.872;4.386;2023-04-03T11:38:13;2.77;;;1.50;;
14472;SDS011;7322;50.872;4.386;2023-04-03T11:40:47;2.70;;;1.27;;
14472;SDS011;7322;50.872;4.386;2023-04-03T11:43:24;2.50;;;1.30;;
14472;SDS011;7322;50.872;4.386;2023-04-03T11:45:53;2.90;;;1.53;;
14472;SDS011;7322;50.872;4.386;2023-04-03T12:00:49;2.57;;;1.60;;
14472;SDS011;7322;50.872;4.386;2023-04-03T12:03:33;1.80;;;1.47;;
14472;SDS011;7322;50.872;4.386;2023-04-03T12:09:24;2.70;;;1.30;;
14472;SDS011;7322;50.872;4.386;2023-04-03T12:11:56;3.47;;;1.20;;
14472;SDS011;7322;50.872;4.386;2023-04-03T12:14:26;1.50;;;1.23;;
14472;SDS011;7322;50.872;4.386;2023-04-03T12:16:57;1.30;;;1.10;;
14472;SDS011;7322;50.872;4.386;2023-04-03T12:19:31;2.50;;;1.40;;
14472;SDS011;7322;50.872;4.386;2023-04-03T12:22:07;2.10;;;1.30;;
14472;SDS011;7322;50.872;4.386;2023-04-03T12:24:39;2.17;;;1.20;;
14472;SDS011;7322;50.872;4.386;2023-04-03T12:27:17;1.60;;;1.20;;
14472;SDS011;7322;50.872;4.386;2023-04-03T12:29:51;2.13;;;1.20;;
14472;SDS011;7322;50.872;4.386;2023-04-03T12:32:31;1.63;;;1.10;;
14472;SDS011;7322;50.872;4.386;2023-04-03T12:35:21;1.70;;;1.27;;
14472;SDS011;7322;50.872;4.386;2023-04-03T12:38:14;1.83;;;1.47;;
14472;SDS011;7322;50.872;4.386;2023-04-03T12:41:15;2.60;;;1.20;;
14472;SDS011;7322;50.872;4.386;2023-04-03T12:43:50;1.73;;;1.20;;
14472;SDS011;7322;50.872;4.386;2023-04-03T12:46:34;1.80;;;1.20;;
14472;SDS011;7322;50.872;4.386;2023-04-03T12:49:14;1.50;;;1.20;;
14472;SDS011;7322;50.872;4.386;2023-04-03T12:51:51;3.67;;;1.30;;
14472;SDS011;7322;50.872;4.386;2023-04-03T12:54:22;2.33;;;1.30;;
14472;SDS011;7322;50.872;4.386;2023-04-03T12:57:08;2.67;;;1.27;;
14472;SDS011;7322;50.872;4.386;2023-04-03T12:59:35;2.40;;;1.23;;
14472;SDS011;7322;50.872;4.386;2023-04-03T13:02:10;2.33;;;1.43;;
14472;SDS011;7322;50.872;4.386;2023-04-03T13:04:57;1.60;;;1.23;;
14472;SDS011;7322;50.872;4.386;2023-04-03T13:07:28;1.40;;;1.07;;
14472;SDS011;7322;50.872;4.386;2023-04-03T13:09:59;1.93;;;1.20;;
14472;SDS011;7322;50.872;4.386;2023-04-03T13:12:30;2.03;;;1.20;;
14472;SDS011;7322;50.872;4.386;2023-04-03T13:14:59;1.47;;;1.10;;
14472;SDS011;7322;50.872;4.386;2023-04-03T13:17:29;1.53;;;1.00;;
14472;SDS011;7322;50.872;4.386;2023-04-03T13:20:14;2.17;;;1.30;;
14472;SDS011;7322;50.872;4.386;2023-04-03T13:22:49;1.93;;;1.10;;
14472;SDS011;7322;50.872;4.386;2023-04-03T13:25:28;1.80;;;1.13;;
14472;SDS011;7322;50.872;4.386;2023-04-03T13:28:03;2.20;;;1.13;;
14472;SDS011;7322;50.872;4.386;2023-04-03T13:30:35;1.67;;;1.27;;
14472;SDS011;7322;50.872;4.386;2023-04-03T13:33:06;0.87;;;0.87;;
14472;SDS011;7322;50.872;4.386;2023-04-03T13:35:48;1.17;;;0.90;;
14472;SDS011;7322;50.872;4.386;2023-04-03T13:38:22;1.43;;;1.10;;
14472;SDS011;7322;50.872;4.386;2023-04-03T13:40:52;1.70;;;1.20;;
14472;SDS011;7322;50.872;4.386;2023-04-03T13:43:23;1.37;;;1.10;;
14472;SDS011;7322;50.872;4.386;2023-04-03T13:46:20;1.53;;;1.13;;
14472;SDS011;7322;50.872;4.386;2023-04-03T13:48:52;3.33;;;1.50;;
14472;SDS011;7322;50.872;4.386;2023-04-03T13:51:24;1.53;;;1.10;;
14472;SDS011;7322;50.872;4.386;2023-04-03T13:53:53;1.77;;;1.27;;
14472;SDS011;7322;50.872;4.386;2023-04-03T14:02:41;1.77;;;1.23;;
14472;SDS011;7322;50.872;4.386;2023-04-03T14:05:22;1.40;;;1.03;;
14472;SDS011;7322;50.872;4.386;2023-04-03T14:07:56;1.57;;;0.90;;
14472;SDS011;7322;50.872;4.386;2023-04-03T14:10:25;2.10;;;1.00;;
14472;SDS011;7322;50.872;4.386;2023-04-03T14:12:52;2.47;;;1.40;;
14472;SDS011;7322;50.872;4.386;2023-04-03T14:15:20;1.23;;;0.90;;
14472;SDS011;7322;50.872;4.386;2023-04-03T14:17:51;1.87;;;1.00;;
14472;SDS011;7322;50.872;4.386;2023-04-03T14:20:19;2.77;;;1.00;;
14472;SDS011;7322;50.872;4.386;2023-04-03T14:22:48;1.47;;;0.93;;
14472;SDS011;7322;50.872;4.386;2023-04-03T14:25:18;1.53;;;1.00;;
14472;SDS011;7322;50.872;4.386;2023-04-03T14:27:49;1.17;;;0.90;;
14472;SDS011;7322;50.872;4.386;2023-04-03T14:30:21;1.63;;;1.07;;
14472;SDS011;7322;50.872;4.386;2023-04-03T14:35:23;1.57;;;0.90;;
14472;SDS011;7322;50.872;4.386;2023-04-03T14:38:02;1.13;;;1.00;;
14472;SDS011;7322;50.872;4.386;2023-04-03T14:40:41;1.30;;;1.00;;
14472;SDS011;7322;50.872;4.386;2023-04-03T14:43:09;1.73;;;1.10;;
14472;SDS011;7322;50.872;4.386;2023-04-03T14:45:38;1.10;;;1.00;;
14472;SDS011;7322;50.872;4.386;2023-04-03T14:48:09;1.30;;;1.00;;
14472;SDS011;7322;50.872;4.386;2023-04-03T14:50:42;2.20;;;1.10;;
14472;SDS011;7322;50.872;4.386;2023-04-03T14:55:47;1.10;;;0.87;;
14472;SDS011;7322;50.872;4.386;2023-04-03T14:58:17;1.47;;;0.97;;
14472;SDS011;7322;50.872;4.386;2023-04-03T15:00:46;1.00;;;0.90;;
14472;SDS011;7322;50.872;4.386;2023-04-03T15:03:15;1.63;;;1.10;;
14472;SDS011;7322;50.872;4.386;2023-04-03T15:05:43;1.50;;;0.93;;
14472;SDS011;7322;50.872;4.386;2023-04-03T15:08:25;0.97;;;0.80;;
14472;SDS011;7322;50.872;4.386;2023-04-03T15:11:01;1.30;;;1.00;;
14472;SDS011;7322;50.872;4.386;2023-04-03T15:13:36;1.10;;;1.00;;
14472;SDS011;7322;50.872;4.386;2023-04-03T15:16:05;1.40;;;1.00;;
14472;SDS011;7322;50.872;4.386;2023-04-03T15:18:39;1.20;;;1.00;;
14472;SDS011;7322;50.872;4.386;2023-04-03T15:21:06;1.17;;;0.97;;
14472;SDS011;7322;50.872;4.386;2023-04-03T15:23:33;1.20;;;0.90;;
14472;SDS011;7322;50.872;4.386;2023-04-03T15:26:03;1.43;;;0.90;;
14472;SDS011;7322;50.872;4.386;2023-04-03T15:28:33;1.23;;;0.90;;
14472;SDS011;7322;50.872;4.386;2023-04-03T15:31:02;1.67;;;0.80;;
14472;SDS011;7322;50.872;4.386;2023-04-03T15:33:31;1.37;;;1.17;;
14472;SDS011;7322;50.872;4.386;2023-04-03T15:35:58;2.20;;;1.03;;
14472;SDS011;7322;50.872;4.386;2023-04-03T15:40:58;1.20;;;1.00;;
14472;SDS011;7322;50.872;4.386;2023-04-03T15:43:26;1.03;;;0.90;;
14472;SDS011;7322;50.872;4.386;2023-04-03T15:46:00;1.97;;;0.90;;
14472;SDS011;7322;50.872;4.386;2023-04-03T15:48:29;1.23;;;1.10;;
14472;SDS011;7322;50.872;4.386;2023-04-03T15:50:58;1.67;;;1.03;;
14472;SDS011;7322;50.872;4.386;2023-04-03T15:53:27;0.97;;;0.80;;
14472;SDS011;7322;50.872;4.386;2023-04-03T15:56:00;1.47;;;0.70;;
14472;SDS011;7322;50.872;4.386;2023-04-03T15:58:28;2.07;;;1.20;;
14472;SDS011;7322;50.872;4.386;2023-04-03T16:01:00;1.27;;;0.90;;
14472;SDS011;7322;50.872;4.386;2023-04-03T16:03:28;1.30;;;0.90;;
14472;SDS011;7322;50.872;4.386;2023-04-03T16:05:55;1.00;;;0.90;;
14472;SDS011;7322;50.872;4.386;2023-04-03T16:08:22;0.83;;;0.83;;
14472;SDS011;7322;50.872;4.386;2023-04-03T16:10:50;1.97;;;0.90;;
14472;SDS011;7322;50.872;4.386;2023-04-03T16:13:17;1.17;;;0.80;;
14472;SDS011;7322;50.872;4.386;2023-04-03T16:15:55;1.10;;;1.00;;
14472;SDS011;7322;50.872;4.386;2023-04-03T16:18:22;2.00;;;0.80;;
14472;SDS011;7322;50.872;4.386;2023-04-03T16:20:49;1.10;;;0.90;;
14472;SDS011;7322;50.872;4.386;2023-04-03T16:23:19;0.97;;;0.80;;
14472;SDS011;7322;50.872;4.386;2023-04-03T16:25:53;1.20;;;1.10;;
14472;SDS011;7322;50.872;4.386;2023-04-03T16:28:27;1.07;;;0.90;;
14472;SDS011;7322;50.872;4.386;2023-04-03T16:30:55;1.33;;;0.80;;
14472;SDS011;7322;50.872;4.386;2023-04-03T16:33:24;1.37;;;0.90;;
14472;SDS011;7322;50.872;4.386;2023-04-03T16:35:52;1.03;;;0.80;;
14472;SDS011;7322;50.872;4.386;2023-04-03T16:38:22;1.43;;;1.13;;
14472;SDS011;7322;50.872;4.386;2023-04-03T16:40:50;0.90;;;0.80;;
14472;SDS011;7322;50.872;4.386;2023-04-03T16:43:25;1.20;;;0.90;;
14472;SDS011;7322;50.872;4.386;2023-04-03T16:46:01;1.43;;;0.80;;
14472;SDS011;7322;50.872;4.386;2023-04-03T16:48:30;1.03;;;0.90;;
14472;SDS011;7322;50.872;4.386;2023-04-03T16:56:44;1.20;;;0.70;;
14472;SDS011;7322;50.872;4.386;2023-04-03T17:05:03;1.00;;;0.90;;
14472;SDS011;7322;50.872;4.386;2023-04-03T17:10:07;1.20;;;1.00;;
14472;SDS011;7322;50.872;4.386;2023-04-03T17:12:49;1.37;;;0.90;;
14472;SDS011;7322;50.872;4.386;2023-04-03T17:15:27;1.10;;;0.90;;
14472;SDS011;7322;50.872;4.386;2023-04-03T17:20:46;1.43;;;0.90;;
14472;SDS011;7322;50.872;4.386;2023-04-03T17:23:13;1.70;;;0.90;;
14472;SDS011;7322;50.872;4.386;2023-04-03T17:34:32;0.93;;;0.90;;
14472;SDS011;7322;50.872;4.386;2023-04-03T17:37:04;1.50;;;0.70;;
14472;SDS011;7322;50.872;4.386;2023-04-03T17:42:03;1.27;;;0.87;;
14472;SDS011;7322;50.872;4.386;2023-04-03T17:44:30;1.20;;;0.77;;
14472;SDS011;7322;50.872;4.386;2023-04-03T17:47:00;1.70;;;0.90;;
14472;SDS011;7322;50.872;4.386;2023-04-03T17:49:34;1.10;;;0.90;;
14472;SDS011;7322;50.872;4.386;2023-04-03T17:52:15;1.77;;;0.87;;
14472;SDS011;7322;50.872;4.386;2023-04-03T17:54:44;1.17;;;0.93;;
14472;SDS011;7322;50.872;4.386;2023-04-03T17:57:24;1.77;;;0.90;;
14472;SDS011;7322;50.872;4.386;2023-04-03T18:00:04;1.03;;;0.80;;
14472;SDS011;7322;50.872;4.386;2023-04-03T18:02:33;1.40;;;1.20;;
14472;SDS011;7322;50.872;4.386;2023-04-03T18:05:01;0.90;;;0.80;;
14472;SDS011;7322;50.872;4.386;2023-04-03T18:07:38;2.40;;;1.07;;
14472;SDS011;7322;50.872;4.386;2023-04-03T18:13:17;3.13;;;1.10;;
14472;SDS011;7322;50.872;4.386;2023-04-03T18:15:45;1.90;;;1.00;;
14472;SDS011;7322;50.872;4.386;2023-04-03T18:18:25;1.70;;;0.90;;
14472;SDS011;7322;50.872;4.386;2023-04-03T18:23:31;2.27;;;1.07;;
14472;SDS011;7322;50.872;4.386;2023-04-03T18:26:01;2.07;;;0.90;;
14472;SDS011;7322;50.872;4.386;2023-04-03T18:28:30;1.93;;;1.17;;
14472;SDS011;7322;50.872;4.386;2023-04-03T18:30:59;2.27;;;1.20;;
14472;SDS011;7322;50.872;4.386;2023-04-03T18:39:22;1.70;;;0.90;;
14472;SDS011;7322;50.872;4.386;2023-04-03T18:45:20;2.27;;;1.20;;
14472;SDS011;7322;50.872;4.386;2023-04-03T18:47:55;2.43;;;0.93;;
14472;SDS011;7322;50.872;4.386;2023-04-03T18:50:23;2.33;;;1.07;;
14472;SDS011;7322;50.872;4.386;2023-04-03T18:52:50;5.00;;;1.20;;
14472;SDS011;7322;50.872;4.386;2023-04-03T18:55:26;1.93;;;1.23;;
14472;SDS011;7322;50.872;4.386;2023-04-03T18:57:57;3.33;;;1.23;;
14472;SDS011;7322;50.872;4.386;2023-04-03T19:00:30;3.57;;;1.27;;
14472;SDS011;7322;50.872;4.386;2023-04-03T19:05:58;3.80;;;1.30;;
14472;SDS011;7322;50.872;4.386;2023-04-03T19:08:32;2.90;;;1.13;;
14472;SDS011;7322;50.872;4.386;2023-04-03T19:11:02;4.47;;;1.50;;
14472;SDS011;7322;50.872;4.386;2023-04-03T19:13:44;2.73;;;1.40;;
14472;SDS011;7322;50.872;4.386;2023-04-03T19:16:22;5.60;;;1.50;;
14472;SDS011;7322;50.872;4.386;2023-04-03T19:18:56;3.67;;;1.50;;
14472;SDS011;7322;50.872;4.386;2023-04-03T19:21:29;4.27;;;1.30;;
14472;SDS011;7322;50.872;4.386;2023-04-03T19:30:33;2.73;;;1.27;;
14472;SDS011;7322;50.872;4.386;2023-04-03T19:35:49;3.10;;;1.20;;
14472;SDS011;7322;50.872;4.386;2023-04-03T19:51:18;3.77;;;1.60;;
14472;SDS011;7322;50.872;4.386;2023-04-03T19:59:30;3.87;;;1.57;;
14472;SDS011;7322;50.872;4.386;2023-04-03T20:01:57;3.70;;;1.47;;
14472;SDS011;7322;50.872;4.386;2023-04-03T20:04:24;3.77;;;1.37;;
14472;SDS011;7322;50.872;4.386;2023-04-03T20:06:52;3.50;;;1.50;;
14472;SDS011;7322;50.872;4.386;2023-04-03T20:09:21;3.83;;;1.60;;
14472;SDS011;7322;50.872;4.386;2023-04-03T20:11:49;3.53;;;1.60;;
14472;SDS011;7322;50.872;4.386;2023-04-03T20:14:19;6.53;;;1.73;;
14472;SDS011;7322;50.872;4.386;2023-04-03T20:19:18;3.53;;;1.30;;
14472;SDS011;7322;50.872;4.386;2023-04-03T20:21:45;3.30;;;1.47;;
14472;SDS011;7322;50.872;4.386;2023-04-03T20:24:15;10.50;;;1.70;;
14472;SDS011;7322;50.872;4.386;2023-04-03T20:26:42;4.83;;;1.60;;